Time;durP1;ratioP1;P1;durP2;ratioP2;P2;SDS_P1;SDS_P2;PMS_P1;PMS_P2;Temp;Humidity;BMP_temperature;BMP_pressure;BME280_temperature;BME280_humidity;BME280_pressure;Samples;Min_cycle;Max_cycle;Signal;HPM_P1;HPM_P2
2024/01/29 00:02:06;;;;;;;21.88;12.93;;;4.50;99.90;;;;;;5031356;28;20375;-77
2024/01/29 00:04:31;;;;;;;23.23;13.48;;;4.50;99.90;;;;;;5036475;28;20119;-81
2024/01/29 00:06:59;;;;;;;23.42;13.32;;;4.50;99.90;;;;;;5036237;28;20040;-78
2024/01/29 00:09:24;;;;;;;16.60;12.30;;;4.40;99.90;;;;;;5034678;28;20021;-79
2024/01/29 00:11:50;;;;;;;20.30;13.88;;;4.40;99.90;;;;;;5033998;28;20017;-81
2024/01/29 00:14:16;;;;;;;21.58;13.90;;;4.40;99.90;;;;;;5032022;28;20477;-80
2024/01/29 00:16:41;;;;;;;21.27;14.50;;;4.40;99.90;;;;;;5027952;28;20025;-80
2024/01/29 00:19:07;;;;;;;22.13;14.07;;;4.40;99.90;;;;;;5027229;28;20100;-74
2024/01/29 00:21:33;;;;;;;19.27;13.15;;;4.40;99.90;;;;;;5032603;28;20463;-80
2024/01/29 00:24:00;;;;;;;20.42;13.27;;;4.40;99.90;;;;;;5032700;28;22732;-78
2024/01/29 00:26:26;;;;;;;21.67;12.98;;;4.40;99.90;;;;;;5029910;28;20018;-78
2024/01/29 00:28:52;;;;;;;19.83;13.20;;;4.40;99.90;;;;;;5031560;28;20049;-79
2024/01/29 00:31:18;;;;;;;19.60;12.77;;;4.40;99.90;;;;;;5029188;28;20453;-80
2024/01/29 00:33:46;;;;;;;23.63;13.57;;;4.40;99.90;;;;;;5032252;28;20384;-78
2024/01/29 00:36:12;;;;;;;25.42;13.82;;;4.30;99.90;;;;;;5033497;28;20024;-79
2024/01/29 00:38:38;;;;;;;20.13;13.57;;;4.30;99.90;;;;;;5032877;28;20026;-80
2024/01/29 00:41:03;;;;;;;21.17;14.00;;;4.30;99.90;;;;;;5037518;28;20504;-76
2024/01/29 00:43:29;;;;;;;20.73;13.43;;;4.30;99.90;;;;;;5034552;28;20433;-80
2024/01/29 00:45:55;;;;;;;22.85;14.55;;;4.40;99.90;;;;;;5034609;28;20029;-76
2024/01/29 00:48:22;;;;;;;20.60;13.75;;;4.30;99.90;;;;;;5030661;28;20494;-76
2024/01/29 00:50:48;;;;;;;20.45;12.57;;;4.40;99.90;;;;;;5032250;28;20112;-79
2024/01/29 00:53:15;;;;;;;20.45;13.95;;;4.30;99.90;;;;;;5033460;28;20031;-78
2024/01/29 00:55:43;;;;;;;22.27;12.40;;;4.30;99.90;;;;;;5032759;28;20037;-80
2024/01/29 00:58:10;;;;;;;21.42;13.38;;;4.20;99.90;;;;;;5036058;28;20025;-80
2024/01/29 01:00:35;;;;;;;20.55;13.20;;;4.20;99.90;;;;;;5033484;28;20083;-79
2024/01/29 01:03:01;;;;;;;19.90;13.70;;;4.20;99.90;;;;;;5029907;28;20029;-80
2024/01/29 01:05:27;;;;;;;20.60;12.82;;;4.20;99.90;;;;;;5030642;28;20029;-81
2024/01/29 01:07:53;;;;;;;24.45;14.70;;;4.20;99.90;;;;;;5029284;28;20029;-78
2024/01/29 01:10:19;;;;;;;18.15;13.10;;;4.20;99.90;;;;;;5030241;28;20017;-79
2024/01/29 01:12:44;;;;;;;20.25;13.13;;;4.20;99.90;;;;;;5028786;28;22650;-79
2024/01/29 01:15:10;;;;;;;20.65;12.60;;;4.30;99.90;;;;;;5030966;28;20026;-80
2024/01/29 01:17:36;;;;;;;22.33;13.40;;;4.30;99.90;;;;;;5029392;28;20079;-79
2024/01/29 01:20:03;;;;;;;19.60;13.45;;;4.30;99.90;;;;;;5024950;28;20021;-80
2024/01/29 01:22:28;;;;;;;19.02;12.98;;;4.30;99.90;;;;;;5028426;28;20424;-79
2024/01/29 01:24:54;;;;;;;18.08;11.98;;;4.30;99.90;;;;;;5029499;28;20490;-78
2024/01/29 01:27:20;;;;;;;21.38;13.70;;;4.30;99.90;;;;;;5030948;28;20387;-75
2024/01/29 01:29:46;;;;;;;23.27;14.43;;;4.30;99.90;;;;;;5027731;28;20029;-76
2024/01/29 01:32:11;;;;;;;20.05;13.48;;;4.20;99.90;;;;;;5030433;28;20041;-74
2024/01/29 01:34:37;;;;;;;17.95;12.65;;;4.20;99.90;;;;;;5028946;28;20025;-79
2024/01/29 01:37:03;;;;;;;22.13;13.90;;;4.20;99.90;;;;;;5030926;28;20037;-78
2024/01/29 01:39:29;;;;;;;20.73;13.25;;;4.20;99.90;;;;;;5030438;28;20060;-79
2024/01/29 01:41:55;;;;;;;19.73;13.02;;;4.20;99.90;;;;;;5027635;28;20048;-78
2024/01/29 01:44:21;;;;;;;21.23;13.50;;;4.20;99.90;;;;;;5025074;28;20036;-76
2024/01/29 01:46:47;;;;;;;22.55;12.65;;;4.20;99.90;;;;;;5022791;28;20026;-79
2024/01/29 01:49:13;;;;;;;23.25;13.05;;;4.20;99.90;;;;;;5018182;28;20029;-77
2024/01/29 01:51:39;;;;;;;18.98;12.73;;;4.20;99.90;;;;;;5029777;28;20430;-73
2024/01/29 01:54:07;;;;;;;20.98;12.80;;;4.20;99.90;;;;;;5016218;28;20029;-77
2024/01/29 01:56:33;;;;;;;21.25;12.60;;;4.10;99.90;;;;;;5026104;28;20022;-75
2024/01/29 01:59:03;;;;;;;21.23;12.38;;;4.10;99.90;;;;;;5014235;28;20686;-78
2024/01/29 02:01:29;;;;;;;17.38;11.85;;;4.20;99.90;;;;;;5009239;28;20048;-73
2024/01/29 02:03:55;;;;;;;16.63;12.07;;;4.10;99.90;;;;;;5011002;28;20034;-77
2024/01/29 02:06:20;;;;;;;18.75;13.18;;;4.20;99.90;;;;;;5018824;28;20401;-77
2024/01/29 02:08:46;;;;;;;17.17;11.60;;;4.20;99.90;;;;;;5013054;28;20533;-77
2024/01/29 02:11:12;;;;;;;18.20;12.85;;;4.10;99.90;;;;;;5012097;28;20525;-77
2024/01/29 02:13:38;;;;;;;21.80;12.32;;;4.10;99.90;;;;;;5030168;28;20063;-76
2024/01/29 02:16:04;;;;;;;13.90;10.20;;;4.10;99.90;;;;;;5013676;28;20026;-74
2024/01/29 02:18:30;;;;;;;18.75;11.30;;;4.10;99.90;;;;;;5031842;28;20056;-77
2024/01/29 02:20:56;;;;;;;19.40;12.50;;;4.10;99.90;;;;;;5031265;28;20024;-76
2024/01/29 02:23:22;;;;;;;18.73;10.70;;;4.10;99.90;;;;;;5031222;28;20030;-74
2024/01/29 02:25:47;;;;;;;16.13;11.27;;;4.00;99.90;;;;;;5028855;28;20052;-77
2024/01/29 02:28:13;;;;;;;20.67;13.00;;;4.00;99.90;;;;;;5030778;28;20117;-77
2024/01/29 02:30:39;;;;;;;20.38;11.57;;;4.00;99.90;;;;;;5027468;28;20056;-78
2024/01/29 02:33:05;;;;;;;17.65;11.73;;;4.00;99.90;;;;;;5022692;28;20075;-77
2024/01/29 02:35:30;;;;;;;18.10;11.65;;;4.00;99.90;;;;;;5017740;28;20032;-78
2024/01/29 02:37:56;;;;;;;17.25;11.95;;;4.00;99.90;;;;;;5034086;28;20029;-76
2024/01/29 02:40:22;;;;;;;17.85;12.10;;;4.00;99.90;;;;;;5033147;28;20022;-79
2024/01/29 02:42:48;;;;;;;16.77;11.77;;;4.00;99.90;;;;;;5035477;28;20108;-75
2024/01/29 02:45:13;;;;;;;16.58;11.38;;;4.00;99.90;;;;;;5034246;28;20112;-74
2024/01/29 02:47:39;;;;;;;16.95;11.60;;;4.00;99.90;;;;;;5035205;28;20021;-76
2024/01/29 02:50:05;;;;;;;16.08;10.82;;;4.10;99.90;;;;;;5034624;28;20082;-78
2024/01/29 02:52:31;;;;;;;18.05;11.23;;;4.10;99.90;;;;;;5033815;28;20021;-78
2024/01/29 02:54:57;;;;;;;14.88;10.38;;;4.10;99.90;;;;;;5035181;28;20016;-75
2024/01/29 02:57:25;;;;;;;16.38;11.10;;;4.10;99.90;;;;;;5032631;28;20025;-73
2024/01/29 02:59:52;;;;;;;18.27;12.50;;;4.20;99.90;;;;;;5034867;28;20033;-77
2024/01/29 03:02:17;;;;;;;17.30;11.55;;;4.20;99.90;;;;;;5034321;28;20029;-77
2024/01/29 03:04:43;;;;;;;16.17;11.07;;;4.20;99.90;;;;;;5034411;28;20084;-77
2024/01/29 03:07:09;;;;;;;16.23;11.05;;;4.10;99.90;;;;;;5034750;28;20021;-77
2024/01/29 03:09:35;;;;;;;16.45;10.55;;;4.10;99.90;;;;;;5034943;28;20096;-77
2024/01/29 03:12:01;;;;;;;18.73;10.73;;;4.10;99.90;;;;;;5034849;28;20108;-78
2024/01/29 03:14:26;;;;;;;15.93;10.23;;;4.10;99.90;;;;;;5027815;28;20057;-78
2024/01/29 03:16:52;;;;;;;17.17;11.55;;;4.10;99.90;;;;;;5022823;28;20079;-77
2024/01/29 03:19:18;;;;;;;14.45;10.77;;;4.00;99.90;;;;;;5034300;28;20041;-78
2024/01/29 03:21:44;;;;;;;16.70;11.48;;;4.00;99.90;;;;;;5020740;28;20489;-78
2024/01/29 03:24:10;;;;;;;16.80;10.98;;;4.10;99.90;;;;;;5034336;28;20029;-78
2024/01/29 03:26:36;;;;;;;17.65;11.55;;;3.90;99.90;;;;;;5033568;28;20036;-78
2024/01/29 03:29:02;;;;;;;18.63;11.15;;;4.00;99.90;;;;;;5034528;28;20413;-77
2024/01/29 03:31:28;;;;;;;17.35;11.05;;;4.00;99.90;;;;;;5034203;28;20030;-78
2024/01/29 03:33:54;;;;;;;16.27;11.13;;;3.90;99.90;;;;;;5034399;28;20040;-77
2024/01/29 03:36:20;;;;;;;17.42;10.93;;;4.00;99.90;;;;;;5034044;28;20773;-77
2024/01/29 03:38:45;;;;;;;16.27;10.63;;;4.00;99.90;;;;;;5034504;28;20104;-78
2024/01/29 03:41:11;;;;;;;17.50;11.52;;;4.00;99.90;;;;;;5034338;28;20036;-78
2024/01/29 03:43:37;;;;;;;16.67;11.82;;;4.10;99.90;;;;;;5034003;28;20037;-77
2024/01/29 03:46:02;;;;;;;15.73;11.77;;;4.00;99.90;;;;;;5034035;28;20029;-78
2024/01/29 03:48:29;;;;;;;16.58;10.73;;;4.00;99.90;;;;;;5033411;28;20014;-78
2024/01/29 03:50:54;;;;;;;14.80;10.63;;;4.00;99.90;;;;;;5034014;28;20438;-78
2024/01/29 03:53:20;;;;;;;15.32;10.68;;;4.00;99.90;;;;;;5034331;28;20029;-76
2024/01/29 03:55:47;;;;;;;14.93;10.18;;;4.00;99.90;;;;;;5034349;28;20107;-77
2024/01/29 03:58:12;;;;;;;16.27;11.07;;;3.90;99.90;;;;;;5032694;28;20075;-76
2024/01/29 04:00:39;;;;;;;17.65;11.10;;;3.90;99.90;;;;;;5033430;28;20029;-77
2024/01/29 04:03:06;;;;;;;17.42;10.95;;;3.90;99.90;;;;;;5034167;28;20025;-77
2024/01/29 04:05:32;;;;;;;18.13;11.57;;;3.90;99.90;;;;;;5033256;28;20033;-77
2024/01/29 04:07:58;;;;;;;17.00;11.32;;;3.90;99.90;;;;;;5033424;28;20040;-77
2024/01/29 04:10:23;;;;;;;20.55;12.50;;;3.90;99.90;;;;;;5033359;28;20025;-76
2024/01/29 04:12:49;;;;;;;16.30;11.05;;;3.90;99.90;;;;;;5034426;28;20101;-76
2024/01/29 04:15:15;;;;;;;16.88;11.65;;;3.90;99.90;;;;;;5033781;28;20033;-76
2024/01/29 04:17:40;;;;;;;18.67;13.07;;;3.90;99.90;;;;;;5033996;28;20467;-77
2024/01/29 04:20:07;;;;;;;19.00;12.40;;;3.80;99.90;;;;;;5033456;28;20025;-76
2024/01/29 04:22:33;;;;;;;15.50;10.88;;;3.80;99.90;;;;;;5032756;28;20021;-77
2024/01/29 04:25:06;;;;;;;16.80;11.93;;;3.80;99.90;;;;;;5033459;28;20041;-76
2024/01/29 04:27:33;;;;;;;16.95;11.02;;;3.80;99.90;;;;;;5032861;28;20445;-74
2024/01/29 04:30:00;;;;;;;18.15;11.77;;;3.90;99.90;;;;;;5033460;28;20128;-77
2024/01/29 04:32:26;;;;;;;15.10;10.50;;;3.80;99.90;;;;;;5033720;28;20034;-75
2024/01/29 04:34:52;;;;;;;17.92;11.35;;;3.90;99.90;;;;;;5031869;28;20026;-74
2024/01/29 04:37:18;;;;;;;15.98;11.07;;;3.90;99.90;;;;;;5033735;28;20024;-76
2024/01/29 04:39:43;;;;;;;14.32;10.48;;;3.90;99.90;;;;;;5033164;28;20025;-77
2024/01/29 04:42:09;;;;;;;14.98;10.10;;;3.80;99.90;;;;;;5033531;28;20018;-77
2024/01/29 04:44:35;;;;;;;17.55;10.60;;;3.90;99.90;;;;;;5031212;28;20475;-77
2024/01/29 04:47:01;;;;;;;14.10;10.18;;;3.90;99.90;;;;;;5033169;28;20109;-77
2024/01/29 04:49:26;;;;;;;16.40;11.05;;;3.90;99.90;;;;;;5032778;28;20450;-74
2024/01/29 04:51:52;;;;;;;17.63;10.05;;;3.90;99.90;;;;;;5033260;28;20028;-78
2024/01/29 04:54:18;;;;;;;16.80;10.15;;;3.90;99.90;;;;;;5032749;28;20383;-77
2024/01/29 04:56:43;;;;;;;17.80;10.20;;;3.90;99.90;;;;;;5030722;28;20378;-77
2024/01/29 04:59:09;;;;;;;17.13;10.65;;;3.90;99.90;;;;;;5032327;28;20549;-75
2024/01/29 05:01:35;;;;;;;14.27;10.00;;;3.90;99.90;;;;;;5032449;28;20036;-74
2024/01/29 05:04:01;;;;;;;17.65;11.00;;;3.80;99.90;;;;;;5032362;28;20102;-77
2024/01/29 05:06:26;;;;;;;16.05;10.65;;;3.80;99.90;;;;;;5033072;28;20033;-75
2024/01/29 05:08:52;;;;;;;16.55;10.93;;;3.80;99.90;;;;;;5032911;28;20025;-77
2024/01/29 05:11:18;;;;;;;18.30;11.13;;;3.70;99.90;;;;;;5032948;28;20451;-74
2024/01/29 05:13:43;;;;;;;16.48;11.10;;;3.70;99.90;;;;;;5032955;28;20029;-75
2024/01/29 05:16:13;;;;;;;14.15;10.27;;;3.80;99.90;;;;;;5031271;28;20049;-76
2024/01/29 05:18:39;;;;;;;14.10;8.93;;;3.90;99.90;;;;;;5032578;28;20025;-75
2024/01/29 05:21:05;;;;;;;16.92;10.45;;;3.90;99.90;;;;;;5032673;28;20029;-77
2024/01/29 05:23:30;;;;;;;13.70;10.55;;;3.90;99.90;;;;;;5031253;28;20029;-76
2024/01/29 05:25:56;;;;;;;14.30;10.63;;;3.90;99.90;;;;;;5032609;28;20036;-76
2024/01/29 05:28:22;;;;;;;18.73;11.20;;;3.90;99.90;;;;;;5031090;28;20022;-75
2024/01/29 05:30:50;;;;;;;18.50;11.23;;;3.80;99.90;;;;;;5032749;28;20037;-76
2024/01/29 05:33:16;;;;;;;15.48;10.88;;;3.70;99.90;;;;;;5025657;28;20034;-75
2024/01/29 05:35:42;;;;;;;15.77;10.85;;;3.60;99.90;;;;;;5012532;28;20105;-77
2024/01/29 05:38:08;;;;;;;16.70;11.00;;;3.70;99.90;;;;;;5012539;28;20506;-75
2024/01/29 05:40:33;;;;;;;20.35;11.00;;;3.70;99.90;;;;;;5012821;28;20064;-75
2024/01/29 05:42:59;;;;;;;14.40;9.95;;;3.70;99.90;;;;;;5012651;28;20037;-74
2024/01/29 05:45:25;;;;;;;19.50;12.23;;;3.70;99.90;;;;;;5011169;28;20565;-77
2024/01/29 05:47:50;;;;;;;18.02;12.02;;;3.70;99.90;;;;;;5030789;28;20036;-76
2024/01/29 05:50:16;;;;;;;15.98;11.40;;;3.70;99.90;;;;;;5032292;28;20029;-76
2024/01/29 05:52:42;;;;;;;20.08;12.07;;;3.70;99.90;;;;;;5030983;28;20156;-76
2024/01/29 05:55:09;;;;;;;15.52;10.45;;;3.80;99.90;;;;;;5031252;28;20018;-74
2024/01/29 05:57:35;;;;;;;20.20;11.70;;;3.80;99.90;;;;;;5029425;28;20052;-74
2024/01/29 06:00:03;;;;;;;14.75;10.57;;;3.70;99.90;;;;;;5030041;28;20112;-77
2024/01/29 06:02:29;;;;;;;15.18;11.00;;;3.70;99.90;;;;;;5030658;28;20478;-74
2024/01/29 06:04:54;;;;;;;17.23;10.90;;;3.70;99.90;;;;;;5031350;28;20113;-75
2024/01/29 06:07:20;;;;;;;14.88;10.38;;;3.60;99.90;;;;;;5032209;28;20235;-77
2024/01/29 06:09:46;;;;;;;16.45;10.75;;;3.60;99.90;;;;;;5032061;28;20505;-77
2024/01/29 06:12:11;;;;;;;16.88;10.27;;;3.70;99.90;;;;;;5034279;28;20029;-74
2024/01/29 06:14:37;;;;;;;15.25;10.45;;;3.70;99.90;;;;;;5034724;28;20390;-75
2024/01/29 06:17:03;;;;;;;18.55;11.45;;;3.70;99.90;;;;;;5034102;28;20549;-74
2024/01/29 06:19:30;;;;;;;16.00;11.52;;;3.70;99.90;;;;;;5033761;28;20445;-76
2024/01/29 06:21:55;;;;;;;22.73;12.20;;;3.80;99.90;;;;;;5035884;28;20021;-77
2024/01/29 06:24:21;;;;;;;13.00;10.85;;;3.70;99.90;;;;;;5035996;28;20042;-77
2024/01/29 06:26:47;;;;;;;16.80;11.38;;;3.80;99.90;;;;;;5035639;28;20026;-74
2024/01/29 06:29:12;;;;;;;16.83;11.18;;;3.70;99.90;;;;;;5035277;28;20029;-77
2024/01/29 06:31:39;;;;;;;16.40;10.13;;;3.80;99.90;;;;;;5035645;28;20120;-74
2024/01/29 06:34:06;;;;;;;14.27;9.77;;;3.80;99.90;;;;;;5035583;28;20018;-74
2024/01/29 06:36:31;;;;;;;14.02;9.48;;;3.80;99.90;;;;;;5033720;28;20053;-77
2024/01/29 06:39:00;;;;;;;14.50;10.27;;;3.80;99.90;;;;;;5026578;28;20487;-76
2024/01/29 06:41:26;;;;;;;13.85;10.55;;;3.80;99.90;;;;;;5015253;28;20029;-77
2024/01/29 06:43:54;;;;;;;15.48;10.18;;;3.80;99.90;;;;;;5015041;28;20026;-77
2024/01/29 06:46:20;;;;;;;12.57;8.85;;;3.80;99.90;;;;;;5015242;28;20033;-78
2024/01/29 06:48:46;;;;;;;15.18;9.63;;;3.90;99.90;;;;;;5031000;28;20053;-76
2024/01/29 06:51:15;;;;;;;14.52;9.10;;;4.00;99.90;;;;;;5015247;28;20549;-75
2024/01/29 06:53:41;;;;;;;13.70;9.10;;;4.10;99.90;;;;;;5015883;28;20184;-78
2024/01/29 06:56:07;;;;;;;15.02;9.55;;;4.10;99.90;;;;;;5015501;28;20025;-76
2024/01/29 06:58:36;;;;;;;17.40;9.52;;;4.10;99.90;;;;;;5014914;28;20541;-74
2024/01/29 07:01:02;;;;;;;14.15;8.30;;;4.00;99.90;;;;;;5027235;28;20025;-78
2024/01/29 07:03:28;;;;;;;11.68;8.23;;;4.10;99.90;;;;;;5035023;28;20475;-77
2024/01/29 07:05:54;;;;;;;15.18;8.98;;;4.10;99.90;;;;;;5034658;28;20033;-74
2024/01/29 07:08:20;;;;;;;11.75;8.65;;;4.10;99.90;;;;;;5034893;28;20026;-74
2024/01/29 07:10:46;;;;;;;16.95;8.70;;;4.10;99.90;;;;;;5034511;28;20120;-76
2024/01/29 07:13:12;;;;;;;13.95;9.40;;;4.10;99.90;;;;;;5034663;28;20088;-76
2024/01/29 07:15:38;;;;;;;15.15;8.75;;;4.20;99.90;;;;;;5032795;28;20017;-73
2024/01/29 07:18:04;;;;;;;12.32;8.52;;;4.30;99.90;;;;;;5034444;28;20064;-76
2024/01/29 07:20:38;;;;;;;11.52;7.70;;;4.30;99.90;;;;;;5034332;28;20028;-74
2024/01/29 07:23:07;;;;;;;13.75;8.45;;;4.40;99.90;;;;;;5032996;28;20120;-75
2024/01/29 07:25:34;;;;;;;13.00;7.60;;;4.50;99.90;;;;;;5034545;28;20037;-74
2024/01/29 07:28:02;;;;;;;12.82;8.25;;;4.50;99.90;;;;;;5028513;28;20026;-74
2024/01/29 07:30:28;;;;;;;12.63;8.05;;;4.60;99.90;;;;;;5015172;28;20034;-73
2024/01/29 07:32:53;;;;;;;12.10;8.15;;;4.70;99.90;;;;;;5028153;28;20029;-78
2024/01/29 07:35:19;;;;;;;15.13;9.00;;;4.70;99.90;;;;;;5034615;28;20033;-77
2024/01/29 07:37:45;;;;;;;10.32;7.57;;;4.80;99.90;;;;;;5034760;28;20030;-75
2024/01/29 07:40:11;;;;;;;12.13;9.05;;;4.80;99.90;;;;;;5033182;28;20036;-78
2024/01/29 07:42:37;;;;;;;14.95;7.97;;;4.90;99.90;;;;;;5034548;28;20466;-77
2024/01/29 07:45:03;;;;;;;11.73;7.35;;;5.00;99.90;;;;;;5026590;28;20033;-78
2024/01/29 07:47:29;;;;;;;12.30;8.25;;;5.00;99.90;;;;;;5040471;28;20101;-77
2024/01/29 07:49:55;;;;;;;11.20;7.22;;;5.10;99.90;;;;;;5032282;28;20177;-78
2024/01/29 07:52:20;;;;;;;9.48;6.50;;;5.10;99.90;;;;;;5031940;28;20057;-77
2024/01/29 07:54:46;;;;;;;12.73;7.15;;;5.20;99.90;;;;;;5047583;28;20033;-78
2024/01/29 07:57:12;;;;;;;8.77;6.50;;;5.20;99.90;;;;;;5039054;28;20571;-78
2024/01/29 07:59:39;;;;;;;10.63;7.00;;;5.20;99.90;;;;;;5033413;28;20128;-76
2024/01/29 08:02:06;;;;;;;9.68;7.10;;;5.20;99.90;;;;;;5030258;28;20021;-77
2024/01/29 08:04:32;;;;;;;10.45;6.72;;;5.20;99.90;;;;;;5051855;28;20108;-75
2024/01/29 08:06:58;;;;;;;10.25;6.65;;;5.30;99.90;;;;;;5054180;28;20516;-76
2024/01/29 08:09:26;;;;;;;11.13;7.18;;;5.30;99.90;;;;;;5052719;28;20033;-77
2024/01/29 08:11:52;;;;;;;9.20;6.43;;;5.40;99.90;;;;;;5027766;28;20036;-76
2024/01/29 08:14:18;;;;;;;10.63;6.30;;;5.40;99.90;;;;;;5015820;28;20489;-75
2024/01/29 08:16:43;;;;;;;15.30;6.93;;;5.50;99.90;;;;;;5014168;28;20029;-74
2024/01/29 08:19:09;;;;;;;10.05;6.72;;;5.50;99.90;;;;;;5037530;28;20025;-74
2024/01/29 08:21:35;;;;;;;12.38;6.72;;;5.50;99.90;;;;;;5052680;28;20466;-76
2024/01/29 08:24:04;;;;;;;9.43;6.63;;;5.60;99.90;;;;;;5052121;28;20112;-77
2024/01/29 08:26:30;;;;;;;15.20;7.25;;;5.60;99.90;;;;;;5053100;28;20053;-77
2024/01/29 08:28:56;;;;;;;9.57;6.45;;;5.60;99.90;;;;;;5053423;28;20057;-77
2024/01/29 08:31:23;;;;;;;10.10;7.07;;;5.70;99.90;;;;;;5038734;28;20533;-78
2024/01/29 08:33:49;;;;;;;12.57;7.15;;;5.70;99.90;;;;;;5031985;28;20028;-78
2024/01/29 08:36:16;;;;;;;11.18;6.60;;;5.80;99.90;;;;;;5029289;28;20034;-79
2024/01/29 08:38:42;;;;;;;11.23;7.10;;;5.90;99.90;;;;;;5027292;28;20518;-80
2024/01/29 08:41:08;;;;;;;10.10;6.53;;;5.80;99.90;;;;;;5033274;28;20399;-79
2024/01/29 08:43:35;;;;;;;13.32;7.05;;;5.90;99.90;;;;;;5032976;28;20033;-80
2024/01/29 08:46:00;;;;;;;10.20;6.93;;;6.00;99.90;;;;;;5031470;28;20061;-80
2024/01/29 08:48:26;;;;;;;9.93;6.18;;;6.10;99.90;;;;;;5033296;28;20545;-81
2024/01/29 08:50:52;;;;;;;10.88;7.13;;;6.10;99.90;;;;;;5022444;28;20061;-81
2024/01/29 08:53:18;;;;;;;10.75;7.03;;;6.10;99.90;;;;;;5023207;28;20049;-77
2024/01/29 08:55:43;;;;;;;12.00;7.43;;;6.20;99.90;;;;;;5020072;28;20091;-81
2024/01/29 08:58:09;;;;;;;11.55;7.43;;;6.30;99.90;;;;;;5023111;28;20021;-81
2024/01/29 09:00:35;;;;;;;10.32;7.15;;;6.40;99.90;;;;;;5023093;28;20487;-81
2024/01/29 09:03:00;;;;;;;12.27;7.95;;;6.50;99.90;;;;;;5020868;28;20029;-80
2024/01/29 09:05:26;;;;;;;10.13;7.10;;;6.60;99.90;;;;;;5018724;28;20030;-80
2024/01/29 09:07:52;;;;;;;12.30;6.90;;;6.60;99.90;;;;;;5019937;28;20108;-80
2024/01/29 09:10:18;;;;;;;11.07;6.40;;;6.60;99.90;;;;;;5021507;28;20057;-80
2024/01/29 09:12:44;;;;;;;15.18;7.35;;;6.70;99.90;;;;;;5024856;28;20130;-79
2024/01/29 09:15:09;;;;;;;12.77;7.30;;;6.80;99.90;;;;;;5030275;28;20033;-80
2024/01/29 09:17:36;;;;;;;12.95;7.45;;;6.80;99.90;;;;;;5015140;28;20105;-79
2024/01/29 09:20:08;;;;;;;10.13;6.57;;;6.90;99.90;;;;;;5020694;28;20025;-79
2024/01/29 09:22:33;;;;;;;11.33;7.27;;;7.00;99.90;;;;;;5046467;28;20021;-79
2024/01/29 09:24:59;;;;;;;11.45;7.22;;;7.00;99.90;;;;;;5024971;28;20375;-78
2024/01/29 09:27:25;;;;;;;11.48;7.35;;;7.00;99.90;;;;;;5020076;28;20428;-79
2024/01/29 09:29:50;;;;;;;10.40;7.45;;;7.10;99.90;;;;;;5021933;28;20064;-78
2024/01/29 09:32:16;;;;;;;13.07;7.88;;;7.20;99.90;;;;;;5023555;28;20508;-79
2024/01/29 09:34:42;;;;;;;12.93;8.07;;;7.10;99.90;;;;;;5022073;28;20025;-79
2024/01/29 09:37:07;;;;;;;10.15;7.70;;;7.10;99.90;;;;;;5020138;28;20021;-79
2024/01/29 09:39:33;;;;;;;13.32;8.20;;;7.20;99.90;;;;;;5014584;28;20533;-80
2024/01/29 09:42:04;;;;;;;8.60;7.32;;;7.30;99.90;;;;;;5020882;28;20441;-79
2024/01/29 09:44:39;;;;;;;9.85;7.63;;;7.50;99.90;;;;;;5016806;28;20045;-77
2024/01/29 09:47:08;;;;;;;11.05;7.35;;;7.60;99.90;;;;;;5023131;28;20083;-78
2024/01/29 09:49:35;;;;;;;10.45;7.30;;;7.60;99.90;;;;;;5032057;28;20029;-78
2024/01/29 09:52:08;;;;;;;11.45;7.55;;;7.70;99.90;;;;;;5031403;28;20021;-77
2024/01/29 09:54:34;;;;;;;13.32;6.57;;;7.80;99.90;;;;;;5032578;28;20053;-75
2024/01/29 09:57:00;;;;;;;11.30;7.13;;;7.90;99.90;;;;;;5030915;28;20021;-76
2024/01/29 09:59:25;;;;;;;9.20;6.53;;;8.00;99.90;;;;;;5032088;28;20037;-77
2024/01/29 10:01:52;;;;;;;12.55;6.88;;;8.10;99.90;;;;;;5031119;28;20076;-77
2024/01/29 10:04:21;;;;;;;8.90;6.53;;;8.10;99.90;;;;;;5026118;28;20041;-76
2024/01/29 10:06:47;;;;;;;8.70;6.88;;;8.30;99.90;;;;;;5020536;28;20486;-75
2024/01/29 10:09:14;;;;;;;12.70;7.22;;;8.40;99.90;;;;;;5022630;28;20013;-77
2024/01/29 10:11:42;;;;;;;8.98;7.18;;;8.40;99.90;;;;;;5011628;28;20014;-78
2024/01/29 10:14:08;;;;;;;13.43;7.57;;;8.50;99.90;;;;;;5011321;28;20033;-76
2024/01/29 10:16:34;;;;;;;10.48;7.60;;;8.60;99.90;;;;;;5032248;28;20543;-79
2024/01/29 10:19:01;;;;;;;11.32;6.50;;;8.50;99.90;;;;;;5031709;28;20101;-77
2024/01/29 10:21:27;;;;;;;9.25;6.35;;;8.60;99.90;;;;;;5031791;28;20446;-79
2024/01/29 10:23:56;;;;;;;8.07;5.55;;;8.70;99.90;;;;;;5032345;28;20029;-79
2024/01/29 10:26:23;;;;;;;10.98;7.45;;;8.80;99.90;;;;;;5029006;28;20040;-77
2024/01/29 10:29:05;;;;;;;11.57;7.60;;;8.90;99.90;;;;;;5019766;28;20029;-79
2024/01/29 10:31:31;;;;;;;9.75;7.63;;;8.90;99.90;;;;;;5024973;28;20053;-80
2024/01/29 10:33:58;;;;;;;15.52;8.02;;;9.00;99.90;;;;;;5031342;28;20374;-80
2024/01/29 10:36:24;;;;;;;10.05;7.38;;;9.10;99.90;;;;;;5030655;28;20025;-77
2024/01/29 10:38:50;;;;;;;10.27;7.68;;;9.10;99.90;;;;;;5029933;28;20548;-80
2024/01/29 10:41:17;;;;;;;11.43;7.43;;;9.30;99.90;;;;;;5023709;28;20030;-83
2024/01/29 10:43:51;;;;;;;9.57;7.88;;;9.30;99.90;;;;;;5027994;28;20029;-83
2024/01/29 10:46:22;;;;;;;9.68;7.70;;;9.40;99.90;;;;;;5020194;28;20034;-83
2024/01/29 10:48:50;;;;;;;9.52;7.30;;;9.40;99.90;;;;;;5021613;28;20025;-83
2024/01/29 10:51:17;;;;;;;10.32;8.13;;;9.50;99.90;;;;;;5023269;28;20105;-84
2024/01/29 10:53:44;;;;;;;11.30;7.10;;;9.50;99.90;;;;;;5029879;28;20059;-81
2024/01/29 10:56:11;;;;;;;9.65;7.20;;;9.50;99.90;;;;;;5028721;28;20108;-83
2024/01/29 10:58:38;;;;;;;12.20;7.63;;;9.50;99.90;;;;;;5032294;28;20029;-83
2024/01/29 11:01:10;;;;;;;12.95;7.93;;;9.50;99.90;;;;;;5031408;28;20034;-84
2024/01/29 11:03:37;;;;;;;10.52;7.20;;;9.50;99.90;;;;;;5026057;28;20025;-84
2024/01/29 11:06:23;;;;;;;13.13;7.45;;;9.70;99.90;;;;;;5023320;28;20033;-81
2024/01/29 11:09:03;;;;;;;11.02;7.35;;;9.70;99.90;;;;;;5018545;28;20057;-80
2024/01/29 11:11:30;;;;;;;11.77;7.07;;;9.70;99.90;;;;;;5014566;28;20079;-81
2024/01/29 11:13:56;;;;;;;12.90;7.97;;;9.70;99.90;;;;;;5019639;28;20052;-80
2024/01/29 11:16:23;;;;;;;10.30;7.65;;;9.80;99.90;;;;;;5034329;28;20030;-80
2024/01/29 11:18:49;;;;;;;10.25;7.50;;;9.80;99.90;;;;;;5034692;28;20022;-82
2024/01/29 11:21:14;;;;;;;9.73;6.82;;;10.00;99.90;;;;;;5034746;28;20036;-83
2024/01/29 11:23:43;;;;;;;11.15;7.25;;;10.00;99.90;;;;;;5034993;28;20026;-81
2024/01/29 11:26:18;;;;;;;13.55;7.88;;;10.10;99.90;;;;;;5034329;28;20029;-84
2024/01/29 11:28:44;;;;;;;11.60;7.07;;;10.10;99.90;;;;;;5032037;28;20108;-84
2024/01/29 11:31:14;;;;;;;10.38;7.57;;;10.20;99.90;;;;;;5034626;28;20109;-85
2024/01/29 11:33:40;;;;;;;16.27;7.45;;;10.30;99.90;;;;;;5016603;28;20025;-78
2024/01/29 11:36:13;;;;;;;10.48;7.65;;;10.40;99.90;;;;;;5012325;28;20079;-84
2024/01/29 11:38:39;;;;;;;10.70;7.95;;;10.50;99.90;;;;;;5032512;28;20057;-84
2024/01/29 11:41:07;;;;;;;9.93;7.47;;;10.40;99.90;;;;;;5029253;28;20021;-80
2024/01/29 11:43:33;;;;;;;12.80;7.00;;;10.50;99.90;;;;;;5034087;28;20053;-80
2024/01/29 11:45:59;;;;;;;11.13;7.10;;;10.60;99.90;;;;;;5035013;28;20034;-82
2024/01/29 11:48:25;;;;;;;9.73;7.22;;;10.70;99.90;;;;;;5030997;28;20029;-83
2024/01/29 11:50:53;;;;;;;12.05;7.55;;;10.80;99.90;;;;;;5032114;28;20466;-71
2024/01/29 11:53:25;;;;;;;10.85;7.70;;;10.80;99.90;;;;;;5030139;28;20021;-77
2024/01/29 11:55:53;;;;;;;11.73;7.47;;;10.90;99.90;;;;;;5028899;28;20025;-82
2024/01/29 11:58:25;;;;;;;11.05;7.55;;;11.00;99.90;;;;;;5029015;28;20554;-84
2024/01/29 12:00:51;;;;;;;13.38;8.43;;;11.10;99.90;;;;;;5032371;28;20029;-82
2024/01/29 12:03:22;;;;;;;9.48;7.70;;;11.10;99.90;;;;;;5030609;28;20047;-85
2024/01/29 12:05:49;;;;;;;10.88;7.60;;;11.10;99.90;;;;;;5031156;28;20037;-84
2024/01/29 12:08:16;;;;;;;12.73;7.90;;;11.10;99.90;;;;;;5032291;28;20033;-76
2024/01/29 12:10:44;;;;;;;13.93;9.27;;;11.20;99.90;;;;;;5031531;28;20022;-79
2024/01/29 12:13:17;;;;;;;14.50;8.75;;;11.20;99.90;;;;;;5028364;28;20021;-78
2024/01/29 12:15:46;;;;;;;10.35;8.02;;;11.30;99.90;;;;;;5029340;28;20029;-79
2024/01/29 12:18:26;;;;;;;9.60;7.63;;;11.30;99.90;;;;;;5030820;28;20013;-79
2024/01/29 12:20:53;;;;;;;13.10;7.95;;;11.30;99.90;;;;;;5033788;28;20025;-77
2024/01/29 12:23:21;;;;;;;10.55;7.28;;;11.30;99.90;;;;;;5031570;28;20022;-77
2024/01/29 12:25:55;;;;;;;11.80;8.05;;;11.40;99.90;;;;;;5030134;28;20095;-79
2024/01/29 12:28:20;;;;;;;12.38;8.27;;;11.50;99.90;;;;;;5029026;28;20017;-79
2024/01/29 12:31:06;;;;;;;15.73;8.15;;;11.60;99.90;;;;;;5029841;28;20119;-77
2024/01/29 12:33:33;;;;;;;10.80;7.40;;;11.50;99.90;;;;;;5029928;28;20021;-74
2024/01/29 12:36:13;;;;;;;10.88;6.93;;;11.50;99.90;;;;;;5028943;28;20036;-75
2024/01/29 12:38:40;;;;;;;12.60;8.50;;;11.60;99.90;;;;;;5029989;28;20033;-76